Dog Valley, California Weather observations

Data are for 10 minute period ending at time listed.
 Day   Time    Ave.   Ave.  Ave.  Vector   Max.   Total    Solar   
  of    of     Air    Rel.  Wind   Wind    Wind  Precip.   Rad.    
Year   Day     Temp.  Hum.  Speed  Dir.    Gust                    
2017   (PST)    F      %     mph   deg.    mph     in.     W/m2    
------------------------------------------------------------------- 
  21    7:00   25.0    90    1.0   305      8.0   30.46       0  
  21    8:00   26.0    93    1.0   193      7.0   30.46       1  
  21    9:00   28.0    88    2.0   293      7.0   30.46      11  
  21   10:00   32.0    78    2.0   206     11.0   30.46      26  
  21   11:00   34.0    72    2.0   189      9.0   30.49      33  
  21   12:00   35.0    73    2.0   199      8.0   30.52     186  
  21   13:00   33.0    78    2.0   206     12.0   30.54     274  
  21   14:00   33.0    73    3.0   268     13.0   30.56     227  
  21   15:00   30.0    79    3.0   240     14.0   30.57     127  
  21   16:00   30.0    76    3.0   277     16.0   30.57      70  
  21   17:00   28.0    76    3.0   180     19.0   30.57      48  
  21   18:00   27.0    84    2.0   146     16.0   30.57       2  
  21   19:00   27.0    83    1.0   215     10.0   30.57       0  
  21   20:00   27.0    81    1.0   177      7.0   30.57       0  
  21   21:00   27.0    81    1.0   157      6.0   30.57       0  
  21   22:00   28.0    77    2.0   155      7.0   30.57       0  
  21   23:00   27.0    86    3.0   276      7.0   30.57       0  
  22    0:00   27.0    87    1.0   275      8.0   30.57       0  
  22    1:00   26.0    93    0.0   257      3.0   30.57       0  
  22    2:00   26.0    95    0.0   158      3.0   30.57       0  
  22    3:00   26.0    96    1.0   148      4.0   30.57       0  
  22    4:00   26.0    96    1.0   168      5.0   30.57       0  
  22    5:00   27.0    97    1.0   173      5.0   30.57       0  
  22    6:00   29.0    99    1.0   140      4.0   30.57       0  

Return to Dog Valley, California graphs page.


Western Regional Climate Center,wrcc@dri.edu